createdAt,value
2018-09-27T00:00:28.036Z,10.97
2018-09-27T00:03:02.630Z,11.03
2018-09-27T00:05:37.361Z,11.01
2018-09-27T00:08:11.912Z,10.97
2018-09-27T00:10:46.436Z,11.09
2018-09-27T00:13:20.988Z,11.11
2018-09-27T00:15:55.664Z,11.15
2018-09-27T00:18:30.161Z,11.12
2018-09-27T00:21:04.961Z,11.10
2018-09-27T00:23:39.455Z,11.06
2018-09-27T00:26:14.068Z,11.07
2018-09-27T00:28:48.774Z,11.10
2018-09-27T00:31:23.409Z,11.00
2018-09-27T00:33:57.990Z,10.96
2018-09-27T00:36:32.592Z,10.92
2018-09-27T00:39:09.508Z,10.86
2018-09-27T00:41:44.021Z,10.83
2018-09-27T00:44:18.689Z,10.77
2018-09-27T00:46:53.288Z,10.79
2018-09-27T00:49:27.790Z,10.80
2018-09-27T00:52:02.472Z,10.72
2018-09-27T00:54:40.364Z,10.67
2018-09-27T00:57:24.562Z,10.69
2018-09-27T01:00:06.929Z,10.78
2018-09-27T01:02:41.440Z,10.78
2018-09-27T01:05:16.040Z,10.80
2018-09-27T01:07:50.677Z,10.79
2018-09-27T01:10:25.146Z,10.71
2018-09-27T01:15:58.506Z,10.54
2018-09-27T01:18:33.296Z,10.62
2018-09-27T01:21:07.745Z,10.60
2018-09-27T01:23:42.349Z,10.54
2018-09-27T01:26:16.975Z,10.56
2018-09-27T01:28:51.917Z,10.52
2018-09-27T01:31:26.315Z,10.43
2018-09-27T01:34:00.952Z,10.46
2018-09-27T01:36:35.606Z,10.60
2018-09-27T01:39:10.643Z,10.63
2018-09-27T01:41:45.277Z,10.68
2018-09-27T01:44:19.821Z,10.68
2018-09-27T01:46:54.428Z,10.61
2018-09-27T01:49:28.833Z,10.63
2018-09-27T01:52:03.557Z,10.58
2018-09-27T01:54:38.298Z,10.54
2018-09-27T01:57:12.725Z,10.51
2018-09-27T01:59:47.424Z,10.50
2018-09-27T02:02:22.445Z,10.44
2018-09-27T02:04:57.016Z,10.23
2018-09-27T02:07:31.618Z,10.22
2018-09-27T02:10:06.233Z,10.32
2018-09-27T02:12:40.827Z,10.39
2018-09-27T02:15:15.597Z,10.48
2018-09-27T02:17:50.209Z,10.48
2018-09-27T02:20:24.795Z,10.49
2018-09-27T02:22:59.280Z,10.36
2018-09-27T02:25:33.813Z,10.33
2018-09-27T02:28:08.249Z,10.35
2018-09-27T02:30:42.689Z,10.46
2018-09-27T02:33:17.349Z,10.53
2018-09-27T02:35:51.808Z,10.65
2018-09-27T02:38:26.512Z,10.68
2018-09-27T02:41:01.053Z,10.71
2018-09-27T02:43:35.688Z,10.74
2018-09-27T02:46:10.254Z,10.76
2018-09-27T02:48:45.205Z,10.82
2018-09-27T02:51:20.082Z,10.85
2018-09-27T02:53:54.590Z,10.82
2018-09-27T02:56:29.200Z,10.88
2018-09-27T02:59:03.688Z,10.90
2018-09-27T03:01:38.138Z,10.87
2018-09-27T03:04:12.717Z,10.83
2018-09-27T03:06:47.218Z,10.78
2018-09-27T03:09:21.829Z,10.75
2018-09-27T03:11:56.365Z,10.70
2018-09-27T03:14:31.018Z,10.67
2018-09-27T03:17:05.781Z,10.65
2018-09-27T03:19:40.764Z,10.56
2018-09-27T03:22:15.331Z,10.50
2018-09-27T03:24:50.213Z,10.51
2018-09-27T03:27:24.854Z,10.49
2018-09-27T03:29:59.421Z,10.51
2018-09-27T03:35:13.850Z,10.54
2018-09-27T03:37:48.344Z,10.53
2018-09-27T03:40:23.342Z,10.58
2018-09-27T03:42:57.970Z,10.54
2018-09-27T03:45:32.556Z,10.54
2018-09-27T03:48:07.057Z,10.51
2018-09-27T03:50:41.534Z,10.47
2018-09-27T03:53:16.145Z,10.48
2018-09-27T03:55:50.554Z,10.48
2018-09-27T03:58:25.093Z,10.43
2018-09-27T04:00:59.555Z,10.45
2018-09-27T04:03:34.154Z,10.42
2018-09-27T04:06:08.665Z,10.44
2018-09-27T04:08:43.236Z,10.47
2018-09-27T04:11:17.712Z,10.47
2018-09-27T04:13:52.579Z,10.50
2018-09-27T04:16:27.173Z,10.53
2018-09-27T04:19:01.639Z,10.51
2018-09-27T04:21:36.252Z,10.49
2018-09-27T04:24:10.851Z,10.48
2018-09-27T04:26:48.966Z,10.53
2018-09-27T04:29:36.980Z,10.49
2018-09-27T04:32:11.418Z,10.46
2018-09-27T04:34:46.237Z,10.42
2018-09-27T04:37:20.737Z,10.41
2018-09-27T04:39:55.351Z,10.44
2018-09-27T04:42:30.036Z,10.42
2018-09-27T04:45:04.780Z,10.40
2018-09-27T04:47:39.526Z,10.39
2018-09-27T04:50:14.256Z,10.40
2018-09-27T04:52:48.870Z,10.40
2018-09-27T04:55:23.384Z,10.36
2018-09-27T04:57:57.982Z,10.38
2018-09-27T05:00:32.528Z,10.35
2018-09-27T05:03:07.123Z,10.35
2018-09-27T05:05:41.720Z,10.34
2018-09-27T05:08:16.710Z,10.34
2018-09-27T05:10:51.417Z,10.34
2018-09-27T05:13:26.119Z,10.33
2018-09-27T05:16:00.807Z,10.35
2018-09-27T05:18:35.441Z,10.33
2018-09-27T05:21:10.333Z,10.30
2018-09-27T05:23:45.168Z,10.28
2018-09-27T05:26:20.074Z,10.31
2018-09-27T05:28:54.608Z,10.31
2018-09-27T05:31:29.147Z,10.30
2018-09-27T05:34:03.772Z,10.34
2018-09-27T05:36:38.336Z,10.23
2018-09-27T05:39:13.136Z,10.30
2018-09-27T05:41:47.805Z,10.34
2018-09-27T05:44:22.787Z,10.34
2018-09-27T05:46:57.405Z,10.41
2018-09-27T05:49:31.904Z,10.41
2018-09-27T05:52:07.082Z,10.42
2018-09-27T05:54:41.671Z,10.44
2018-09-27T05:57:16.408Z,10.44
2018-09-27T05:59:51.245Z,10.46
2018-09-27T06:02:25.996Z,10.44
2018-09-27T06:05:00.560Z,10.52
2018-09-27T06:07:35.111Z,10.54
2018-09-27T06:10:09.677Z,10.60
2018-09-27T06:12:44.244Z,10.65
2018-09-27T06:15:18.948Z,10.63
2018-09-27T06:17:53.565Z,10.68
2018-09-27T06:20:28.211Z,10.71
2018-09-27T06:23:03.201Z,10.71
2018-09-27T06:25:37.913Z,10.76
2018-09-27T06:28:12.542Z,10.86
2018-09-27T06:30:47.331Z,10.90
2018-09-27T06:33:21.853Z,10.95
2018-09-27T06:35:56.661Z,11.03
2018-09-27T06:38:31.380Z,11.12
2018-09-27T06:41:05.952Z,11.26
2018-09-27T06:43:40.752Z,11.67
2018-09-27T06:46:15.614Z,12.70
2018-09-27T06:48:52.347Z,13.35
2018-09-27T06:51:27.502Z,13.81
2018-09-27T06:54:02.076Z,15.46
2018-09-27T06:56:36.574Z,18.81
2018-09-27T06:59:11.405Z,21.60
2018-09-27T07:01:46.104Z,23.17
2018-09-27T07:04:20.940Z,23.75
2018-09-27T07:06:55.652Z,26.10
2018-09-27T07:09:30.382Z,27.02
2018-09-27T07:12:05.210Z,28.28
2018-09-27T07:14:39.850Z,27.87
2018-09-27T07:17:14.425Z,28.50
2018-09-27T07:19:49.598Z,27.21
2018-09-27T07:22:24.084Z,26.16
2018-09-27T07:24:58.627Z,23.89
2018-09-27T07:27:33.444Z,23.33
2018-09-27T07:30:08.320Z,23.58
2018-09-27T07:32:43.272Z,24.51
2018-09-27T07:35:17.850Z,22.80
2018-09-27T07:37:52.875Z,20.52
2018-09-27T07:40:27.545Z,18.98
2018-09-27T07:43:02.057Z,19.59
2018-09-27T07:45:36.595Z,19.46
2018-09-27T07:48:11.345Z,19.47
2018-09-27T07:50:45.908Z,18.75
2018-09-27T07:53:20.684Z,17.39
2018-09-27T07:56:08.995Z,17.11
2018-09-27T07:58:53.896Z,16.75
2018-09-27T08:01:28.572Z,16.49
2018-09-27T08:07:03.930Z,16.76
2018-09-27T08:09:41.527Z,16.74
2018-09-27T08:12:16.140Z,16.71
2018-09-27T08:14:51.012Z,16.80
2018-09-27T08:17:25.554Z,17.02
2018-09-27T08:20:13.042Z,16.64
2018-09-27T08:22:56.065Z,16.76
2018-09-27T08:25:30.685Z,16.92
2018-09-27T08:28:05.425Z,16.97
2018-09-27T08:30:40.777Z,17.03
2018-09-27T08:33:15.410Z,17.08
2018-09-27T08:35:49.967Z,17.15
2018-09-27T08:38:24.763Z,17.64
2018-09-27T08:40:59.369Z,17.79
2018-09-27T08:43:33.993Z,17.88
2018-09-27T08:46:08.683Z,17.99
2018-09-27T08:48:43.196Z,17.78
2018-09-27T08:51:17.939Z,18.54
2018-09-27T08:53:52.535Z,20.69
2018-09-27T08:56:27.118Z,21.68
2018-09-27T08:59:01.822Z,22.28
2018-09-27T09:01:36.381Z,20.95
2018-09-27T09:04:10.851Z,19.97
2018-09-27T09:06:45.505Z,19.41
2018-09-27T09:09:20.288Z,19.12
2018-09-27T09:11:54.855Z,19.23
2018-09-27T09:14:29.411Z,19.45
2018-09-27T09:17:04.405Z,19.63
2018-09-27T09:19:39.249Z,19.87
2018-09-27T09:22:13.655Z,20.59
2018-09-27T09:24:48.360Z,21.61
2018-09-27T09:27:23.022Z,21.62
2018-09-27T09:29:57.636Z,21.66
2018-09-27T09:32:32.527Z,22.60
2018-09-27T09:35:07.264Z,21.53
2018-09-27T09:37:41.929Z,20.67
2018-09-27T09:40:16.600Z,20.39
2018-09-27T09:42:51.212Z,20.37
2018-09-27T09:45:25.970Z,20.33
2018-09-27T09:48:00.624Z,19.80
2018-09-27T09:50:35.303Z,19.66
2018-09-27T09:53:09.890Z,19.46
2018-09-27T09:55:44.608Z,19.51
2018-09-27T09:58:19.419Z,19.48
2018-09-27T10:00:54.331Z,19.40
2018-09-27T10:03:29.150Z,19.66
2018-09-27T10:06:03.853Z,19.77
2018-09-27T10:08:38.984Z,19.76
2018-09-27T10:11:13.625Z,19.83
2018-09-27T10:13:48.330Z,19.96
2018-09-27T10:16:23.207Z,19.70
2018-09-27T10:18:57.693Z,19.63
2018-09-27T10:21:32.262Z,19.71
2018-09-27T10:24:06.908Z,19.73
2018-09-27T10:26:41.689Z,19.95
2018-09-27T10:29:16.331Z,20.03
2018-09-27T10:31:51.141Z,19.68
2018-09-27T10:34:26.255Z,19.79
2018-09-27T10:37:00.872Z,19.70
2018-09-27T10:39:35.457Z,19.96
2018-09-27T10:42:09.989Z,20.15
2018-09-27T10:44:44.845Z,20.11
2018-09-27T10:47:19.519Z,20.11
2018-09-27T10:49:54.198Z,20.14
2018-09-27T10:52:29.148Z,20.15
2018-09-27T10:55:03.645Z,20.42
2018-09-27T10:57:38.476Z,20.45
2018-09-27T11:00:21.837Z,20.58
2018-09-27T11:02:56.453Z,20.49
2018-09-27T11:05:31.051Z,20.21
2018-09-27T11:08:05.912Z,20.49
2018-09-27T11:10:40.622Z,20.55
2018-09-27T11:13:15.070Z,20.50
2018-09-27T11:15:50.041Z,20.52
2018-09-27T11:18:24.862Z,20.54
2018-09-27T11:20:59.471Z,20.51
2018-09-27T11:23:34.640Z,20.47
2018-09-27T11:26:09.633Z,20.74
2018-09-27T11:28:49.491Z,20.77
2018-09-27T11:31:29.266Z,20.80
2018-09-27T11:34:03.933Z,20.97
2018-09-27T11:36:38.473Z,21.19
2018-09-27T11:39:12.941Z,21.09
2018-09-27T11:41:47.607Z,21.17
2018-09-27T11:44:22.036Z,21.06
2018-09-27T11:46:56.569Z,20.98
2018-09-27T11:49:31.275Z,21.01
2018-09-27T11:52:05.962Z,21.05
2018-09-27T11:54:40.585Z,20.77
2018-09-27T11:57:15.182Z,20.87
2018-09-27T11:59:49.876Z,20.89
2018-09-27T12:02:24.458Z,21.08
2018-09-27T12:04:59.105Z,21.09
2018-09-27T12:07:33.853Z,21.11
2018-09-27T12:10:08.345Z,21.04
2018-09-27T12:12:42.995Z,20.96
2018-09-27T12:15:17.816Z,20.88
2018-09-27T12:17:52.172Z,20.89
2018-09-27T12:20:26.513Z,20.74
2018-09-27T12:23:00.970Z,20.94
2018-09-27T12:25:35.401Z,20.89
2018-09-27T12:28:09.781Z,21.09
2018-09-27T12:30:44.327Z,21.21
2018-09-27T12:33:19.049Z,21.27
2018-09-27T12:36:02.019Z,21.19
2018-09-27T12:38:41.530Z,21.31
2018-09-27T12:41:16.068Z,21.20
2018-09-27T12:43:50.773Z,21.20
2018-09-27T12:46:25.597Z,21.31
2018-09-27T12:49:00.076Z,21.23
2018-09-27T12:51:34.703Z,21.26
2018-09-27T12:54:09.169Z,21.23
2018-09-27T12:56:43.780Z,21.39
2018-09-27T12:59:18.718Z,21.42
2018-09-27T13:01:53.468Z,21.46
2018-09-27T13:04:27.797Z,21.48
2018-09-27T13:07:02.355Z,21.51
2018-09-27T13:09:37.105Z,21.54
2018-09-27T13:12:11.872Z,21.46
2018-09-27T13:14:46.347Z,21.53
2018-09-27T13:17:21.018Z,21.56
2018-09-27T13:19:55.793Z,21.65
2018-09-27T13:22:30.832Z,21.60
2018-09-27T13:25:05.612Z,21.62
2018-09-27T13:27:40.064Z,21.60
2018-09-27T13:30:14.782Z,21.70
2018-09-27T13:32:49.285Z,21.73
2018-09-27T13:35:23.645Z,21.67
2018-09-27T13:37:58.253Z,21.70
2018-09-27T13:40:32.778Z,21.66
2018-09-27T13:43:07.306Z,21.72
2018-09-27T13:45:41.829Z,21.73
2018-09-27T13:48:16.408Z,21.75
2018-09-27T13:50:51.032Z,21.75
2018-09-27T13:53:25.541Z,21.74
2018-09-27T13:56:00.210Z,21.86
2018-09-27T13:58:34.746Z,21.88
2018-09-27T14:01:09.598Z,21.88
2018-09-27T14:03:43.933Z,21.70
2018-09-27T14:06:18.472Z,21.73
2018-09-27T14:08:53.028Z,21.70
2018-09-27T14:11:27.504Z,21.69
2018-09-27T14:14:02.094Z,21.70
2018-09-27T14:16:36.644Z,21.71
2018-09-27T14:19:11.276Z,21.91
2018-09-27T14:21:45.917Z,21.87
2018-09-27T14:24:20.428Z,21.97
2018-09-27T14:26:55.010Z,22.02
2018-09-27T14:29:29.642Z,22.12
2018-09-27T14:32:04.268Z,22.48
2018-09-27T14:34:38.833Z,22.98
2018-09-27T14:37:13.355Z,23.35
2018-09-27T14:39:47.926Z,23.83
2018-09-27T14:42:22.401Z,24.22
2018-09-27T14:44:57.226Z,24.54
2018-09-27T14:47:52.225Z,24.56
2018-09-27T14:50:31.885Z,24.33
2018-09-27T14:53:06.511Z,23.71
2018-09-27T14:55:41.229Z,23.94
2018-09-27T14:58:16.141Z,23.99
2018-09-27T15:00:50.503Z,23.77
2018-09-27T15:03:24.913Z,23.89
2018-09-27T15:05:59.653Z,23.94
2018-09-27T15:08:34.186Z,23.68
2018-09-27T15:11:08.616Z,23.53
2018-09-27T15:13:43.152Z,23.56
2018-09-27T15:16:17.918Z,23.20
2018-09-27T15:18:52.540Z,23.06
2018-09-27T15:21:27.009Z,22.91
2018-09-27T15:24:02.713Z,22.57
2018-09-27T15:26:37.239Z,22.15
2018-09-27T15:29:11.953Z,21.83
2018-09-27T15:31:46.424Z,21.55
2018-09-27T15:34:20.866Z,21.30
2018-09-27T15:36:55.226Z,21.13
2018-09-27T15:39:29.639Z,21.03
2018-09-27T15:42:04.384Z,20.98
2018-09-27T15:44:39.109Z,20.96
2018-09-27T15:47:13.837Z,20.75
2018-09-27T15:49:48.329Z,20.52
2018-09-27T15:52:22.828Z,20.33
2018-09-27T15:54:57.241Z,20.17
2018-09-27T15:57:31.697Z,20.03
2018-09-27T16:00:06.517Z,19.91
2018-09-27T16:02:41.044Z,19.83
2018-09-27T16:05:15.633Z,19.81
2018-09-27T16:07:50.231Z,19.88
2018-09-27T16:10:24.894Z,20.07
2018-09-27T16:12:59.310Z,20.23
2018-09-27T16:15:33.786Z,20.54
2018-09-27T16:18:08.396Z,20.89
2018-09-27T16:20:42.964Z,21.31
2018-09-27T16:23:17.976Z,21.72
2018-09-27T16:25:52.417Z,21.84
2018-09-27T16:28:26.881Z,21.95
2018-09-27T16:31:01.726Z,21.98
2018-09-27T16:33:36.667Z,22.09
2018-09-27T16:36:11.312Z,21.80
2018-09-27T16:38:47.857Z,21.49
2018-09-27T16:41:22.780Z,20.91
2018-09-27T16:43:57.459Z,20.31
2018-09-27T16:46:49.014Z,19.78
2018-09-27T16:49:23.645Z,19.26
2018-09-27T16:51:58.275Z,18.84
2018-09-27T16:54:33.030Z,18.56
2018-09-27T16:57:08.253Z,18.32
2018-09-27T16:59:43.100Z,18.06
2018-09-27T17:02:17.886Z,17.84
2018-09-27T17:04:52.652Z,17.63
2018-09-27T17:07:27.372Z,17.44
2018-09-27T17:10:01.999Z,17.24
2018-09-27T17:12:36.613Z,17.04
2018-09-27T17:15:11.074Z,16.84
2018-09-27T17:17:45.798Z,16.70
2018-09-27T17:20:20.609Z,16.57
2018-09-27T17:22:55.432Z,16.45
2018-09-27T17:25:29.973Z,16.31
2018-09-27T17:28:04.491Z,16.24
2018-09-27T17:30:39.297Z,16.21
2018-09-27T17:33:14.012Z,16.11
2018-09-27T17:35:48.641Z,16.05
2018-09-27T17:38:23.428Z,15.69
2018-09-27T17:40:57.991Z,15.54
2018-09-27T17:43:32.435Z,15.43
2018-09-27T17:46:07.017Z,15.32
2018-09-27T17:48:41.618Z,15.28
2018-09-27T17:51:16.179Z,15.25
2018-09-27T17:53:50.692Z,15.14
2018-09-27T17:56:25.142Z,15.04
2018-09-27T17:58:59.824Z,14.94
2018-09-27T18:01:34.406Z,14.85
2018-09-27T18:04:08.992Z,15.06
2018-09-27T18:06:43.640Z,15.04
2018-09-27T18:09:18.456Z,15.05
2018-09-27T18:11:53.126Z,15.02
2018-09-27T18:14:28.061Z,14.98
2018-09-27T18:17:03.804Z,14.97
2018-09-27T18:19:38.336Z,14.96
2018-09-27T18:22:12.942Z,14.94
2018-09-27T18:24:55.101Z,14.91
2018-09-27T18:27:30.434Z,14.92
2018-09-27T18:30:05.066Z,14.90
2018-09-27T18:32:40.066Z,14.87
2018-09-27T18:35:14.649Z,14.80
2018-09-27T18:37:49.445Z,14.78
2018-09-27T18:40:23.949Z,14.78
2018-09-27T18:42:58.676Z,14.73
2018-09-27T18:45:33.453Z,14.70
2018-09-27T18:48:08.021Z,14.67
2018-09-27T18:50:42.821Z,14.60
2018-09-27T18:53:17.632Z,14.58
2018-09-27T18:55:52.513Z,14.53
2018-09-27T18:58:27.037Z,14.52
2018-09-27T19:01:01.788Z,14.49
2018-09-27T19:03:36.485Z,14.43
2018-09-27T19:06:11.442Z,14.40
2018-09-27T19:08:46.081Z,14.42
2018-09-27T19:11:20.586Z,14.38
2018-09-27T19:13:55.282Z,14.36
2018-09-27T19:16:29.896Z,14.37
2018-09-27T19:19:04.604Z,14.37
2018-09-27T19:21:39.457Z,14.34
2018-09-27T19:24:14.085Z,14.24
2018-09-27T19:26:48.766Z,14.24
2018-09-27T19:29:23.518Z,14.23
2018-09-27T19:31:58.376Z,14.18
2018-09-27T19:34:32.929Z,14.13
2018-09-27T19:37:07.388Z,14.09
2018-09-27T19:39:42.073Z,14.05
2018-09-27T19:42:16.672Z,14.01
2018-09-27T19:44:51.422Z,13.96
2018-09-27T19:47:25.946Z,14.01
2018-09-27T19:50:00.615Z,13.97
2018-09-27T19:52:35.565Z,13.91
2018-09-27T19:55:10.293Z,13.84
2018-09-27T19:57:44.955Z,13.80
2018-09-27T20:00:19.600Z,13.79
2018-09-27T20:02:54.276Z,13.79
2018-09-27T20:05:28.892Z,13.73
2018-09-27T20:08:03.674Z,13.68
2018-09-27T20:10:38.556Z,13.62
2018-09-27T20:13:13.205Z,13.58
2018-09-27T20:15:48.022Z,13.58
2018-09-27T20:18:22.698Z,13.61
2018-09-27T20:20:57.252Z,13.61
2018-09-27T20:23:31.952Z,13.57
2018-09-27T20:26:06.984Z,13.57
2018-09-27T20:28:41.554Z,13.56
2018-09-27T20:31:16.033Z,13.56
2018-09-27T20:33:50.766Z,13.59
2018-09-27T20:36:25.348Z,13.57
2018-09-27T20:38:59.983Z,13.54
2018-09-27T20:41:34.518Z,13.52
2018-09-27T20:44:09.009Z,13.42
2018-09-27T20:46:43.810Z,13.45
2018-09-27T20:49:18.377Z,13.43
2018-09-27T20:51:53.272Z,13.37
2018-09-27T20:54:28.290Z,13.37
2018-09-27T20:57:02.856Z,13.36
2018-09-27T20:59:37.352Z,13.36
2018-09-27T21:02:11.968Z,13.37
2018-09-27T21:04:46.520Z,13.34
2018-09-27T21:07:21.257Z,13.33
2018-09-27T21:09:55.999Z,13.13
2018-09-27T21:12:30.911Z,13.24
2018-09-27T21:15:06.241Z,13.20
2018-09-27T21:17:40.660Z,13.19
2018-09-27T21:20:14.985Z,13.14
2018-09-27T21:22:49.455Z,13.13
2018-09-27T21:25:24.026Z,13.10
2018-09-27T21:27:58.491Z,13.02
2018-09-27T21:30:32.965Z,12.99
2018-09-27T21:33:08.490Z,12.98
2018-09-27T21:35:43.061Z,12.94
2018-09-27T21:38:18.274Z,12.89
2018-09-27T21:40:53.121Z,12.85
2018-09-27T21:43:27.618Z,12.84
2018-09-27T21:46:02.373Z,12.78
2018-09-27T21:48:36.816Z,12.82
2018-09-27T21:51:11.608Z,12.80
2018-09-27T21:53:46.073Z,12.79
2018-09-27T21:56:20.737Z,12.74
2018-09-27T21:58:55.493Z,12.72
2018-09-27T22:01:30.237Z,12.68
2018-09-27T22:04:23.091Z,12.62
2018-09-27T22:07:18.044Z,12.63
2018-09-27T22:09:53.100Z,12.55
2018-09-27T22:12:27.587Z,12.50
2018-09-27T22:15:02.477Z,12.39
2018-09-27T22:17:37.012Z,12.34
2018-09-27T22:20:11.703Z,12.27
2018-09-27T22:22:46.377Z,12.23
2018-09-27T22:25:20.852Z,12.17
2018-09-27T22:27:55.469Z,12.22
2018-09-27T22:30:30.021Z,12.26
2018-09-27T22:33:04.508Z,12.14
2018-09-27T22:35:39.788Z,12.09
2018-09-27T22:38:14.336Z,12.01
2018-09-27T22:40:48.808Z,11.97
2018-09-27T22:43:23.615Z,11.95
2018-09-27T22:45:58.108Z,11.88
2018-09-27T22:48:32.669Z,11.88
2018-09-27T22:51:07.251Z,11.85
2018-09-27T22:53:41.849Z,11.85
2018-09-27T22:56:16.425Z,11.77
2018-09-27T22:58:50.950Z,11.75
2018-09-27T23:01:25.307Z,11.68
2018-09-27T23:03:59.716Z,11.63
2018-09-27T23:06:34.176Z,11.63
2018-09-27T23:09:08.993Z,11.58
2018-09-27T23:11:43.633Z,11.52
2018-09-27T23:14:34.197Z,11.47
2018-09-27T23:17:08.533Z,11.46
2018-09-27T23:19:42.873Z,11.46
2018-09-27T23:22:17.344Z,11.41
2018-09-27T23:24:51.838Z,11.35
2018-09-27T23:27:26.240Z,11.31
2018-09-27T23:30:00.892Z,11.25
2018-09-27T23:32:35.404Z,11.24
2018-09-27T23:35:09.900Z,11.17
2018-09-27T23:37:44.336Z,11.13
2018-09-27T23:40:18.868Z,11.10
2018-09-27T23:42:53.393Z,11.07
2018-09-27T23:45:27.834Z,11.05
2018-09-27T23:48:02.472Z,11.04
2018-09-27T23:50:37.052Z,11.02
2018-09-27T23:53:11.525Z,11.01
2018-09-27T23:55:46.069Z,10.97
2018-09-27T23:58:20.572Z,10.91
